Terminal Aerodrome Forecast
Issued by NWS North Platte, NE

Home | Current Version | Previous Version | Text Only | Print | Product List | Glossary On
Versions: 1 2 3 4 5 6 7 8 9 10 11 12
000
FTUS43 KLBF 010500
TAFVTN
TAF
KVTN 010520Z 0106/0206 VRB06KT P6SM SCT080 PROB30 0122/0202 3SM
      +TSRA OVC035CB
     FM020300 18008KT P6SM BKN150=

USA.gov is the U.S. government's official web portal to all federal, state and local government web resources and services.